sensor_id;sensor_type;location;lat;lon;timestamp;temperature;humidity
23311;DHT22;11828;51.508;18.118;2022-07-10T00:00:42;34.00;31.10
23311;DHT22;11828;51.508;18.118;2022-07-10T00:03:08;33.90;31.00
23311;DHT22;11828;51.508;18.118;2022-07-10T00:05:34;33.90;31.00
23311;DHT22;11828;51.508;18.118;2022-07-10T00:08:01;33.90;31.10
23311;DHT22;11828;51.508;18.118;2022-07-10T00:10:27;33.90;31.10
23311;DHT22;11828;51.508;18.118;2022-07-10T00:12:54;33.90;31.10
23311;DHT22;11828;51.508;18.118;2022-07-10T00:15:21;33.90;31.10
23311;DHT22;11828;51.508;18.118;2022-07-10T00:17:47;33.90;31.20
23311;DHT22;11828;51.508;18.118;2022-07-10T00:20:13;33.90;31.20
23311;DHT22;11828;51.508;18.118;2022-07-10T00:22:40;33.80;31.20
23311;DHT22;11828;51.508;18.118;2022-07-10T00:25:10;33.80;31.40
23311;DHT22;11828;51.508;18.118;2022-07-10T00:27:37;33.80;31.40
23311;DHT22;11828;51.508;18.118;2022-07-10T00:30:05;33.80;31.60
23311;DHT22;11828;51.508;18.118;2022-07-10T00:32:31;33.70;31.70
23311;DHT22;11828;51.508;18.118;2022-07-10T00:34:57;33.80;31.80
23311;DHT22;11828;51.508;18.118;2022-07-10T00:37:23;33.80;31.70
23311;DHT22;11828;51.508;18.118;2022-07-10T00:39:49;33.80;31.80
23311;DHT22;11828;51.508;18.118;2022-07-10T00:42:16;33.70;31.80
23311;DHT22;11828;51.508;18.118;2022-07-10T00:44:43;33.80;32.10
23311;DHT22;11828;51.508;18.118;2022-07-10T00:47:11;33.70;32.00
23311;DHT22;11828;51.508;18.118;2022-07-10T00:49:38;33.60;32.00
23311;DHT22;11828;51.508;18.118;2022-07-10T00:52:10;33.60;32.20
23311;DHT22;11828;51.508;18.118;2022-07-10T00:54:41;33.60;32.20
23311;DHT22;11828;51.508;18.118;2022-07-10T00:57:08;33.60;32.60
23311;DHT22;11828;51.508;18.118;2022-07-10T00:59:35;33.60;32.80
23311;DHT22;11828;51.508;18.118;2022-07-10T01:02:03;33.50;32.70
23311;DHT22;11828;51.508;18.118;2022-07-10T01:04:30;33.50;32.70
23311;DHT22;11828;51.508;18.118;2022-07-10T01:06:56;33.50;32.80
23311;DHT22;11828;51.508;18.118;2022-07-10T01:09:22;33.50;33.00
23311;DHT22;11828;51.508;18.118;2022-07-10T01:11:48;33.50;33.50
23311;DHT22;11828;51.508;18.118;2022-07-10T01:14:15;33.40;33.00
23311;DHT22;11828;51.508;18.118;2022-07-10T01:16:42;33.50;33.60
23311;DHT22;11828;51.508;18.118;2022-07-10T01:19:08;33.50;33.70
23311;DHT22;11828;51.508;18.118;2022-07-10T01:21:36;33.50;33.50
23311;DHT22;11828;51.508;18.118;2022-07-10T01:24:07;33.60;33.30
23311;DHT22;11828;51.508;18.118;2022-07-10T01:26:35;33.50;33.20
23311;DHT22;11828;51.508;18.118;2022-07-10T01:29:06;33.50;33.20
23311;DHT22;11828;51.508;18.118;2022-07-10T01:31:33;33.50;33.10
23311;DHT22;11828;51.508;18.118;2022-07-10T01:34:00;33.50;33.40
23311;DHT22;11828;51.508;18.118;2022-07-10T01:36:31;33.50;33.40
23311;DHT22;11828;51.508;18.118;2022-07-10T01:38:58;33.50;33.20
23311;DHT22;11828;51.508;18.118;2022-07-10T01:41:25;33.50;33.30
23311;DHT22;11828;51.508;18.118;2022-07-10T01:43:51;33.40;32.90
23311;DHT22;11828;51.508;18.118;2022-07-10T01:46:18;33.30;33.30
23311;DHT22;11828;51.508;18.118;2022-07-10T01:48:44;33.30;33.50
23311;DHT22;11828;51.508;18.118;2022-07-10T01:51:11;33.30;33.40
23311;DHT22;11828;51.508;18.118;2022-07-10T01:53:38;33.30;33.40
23311;DHT22;11828;51.508;18.118;2022-07-10T01:56:07;33.20;33.50
23311;DHT22;11828;51.508;18.118;2022-07-10T01:58:35;33.20;33.40
23311;DHT22;11828;51.508;18.118;2022-07-10T02:01:02;33.20;33.60
23311;DHT22;11828;51.508;18.118;2022-07-10T02:03:29;33.10;33.70
23311;DHT22;11828;51.508;18.118;2022-07-10T02:06:13;33.10;33.60
23311;DHT22;11828;51.508;18.118;2022-07-10T02:08:40;33.10;33.50
23311;DHT22;11828;51.508;18.118;2022-07-10T02:11:06;33.10;33.60
23311;DHT22;11828;51.508;18.118;2022-07-10T02:13:32;33.10;33.40
23311;DHT22;11828;51.508;18.118;2022-07-10T02:15:58;33.20;33.40
23311;DHT22;11828;51.508;18.118;2022-07-10T02:18:25;33.10;33.10
23311;DHT22;11828;51.508;18.118;2022-07-10T02:20:52;33.10;33.10
23311;DHT22;11828;51.508;18.118;2022-07-10T02:23:18;33.00;33.10
23311;DHT22;11828;51.508;18.118;2022-07-10T02:25:44;33.00;33.10
23311;DHT22;11828;51.508;18.118;2022-07-10T02:28:11;33.00;33.20
23311;DHT22;11828;51.508;18.118;2022-07-10T02:30:37;33.10;33.20
23311;DHT22;11828;51.508;18.118;2022-07-10T02:33:03;33.10;33.30
23311;DHT22;11828;51.508;18.118;2022-07-10T02:35:29;33.10;33.20
23311;DHT22;11828;51.508;18.118;2022-07-10T02:37:55;33.10;33.00
23311;DHT22;11828;51.508;18.118;2022-07-10T02:40:21;33.10;33.20
23311;DHT22;11828;51.508;18.118;2022-07-10T02:42:47;33.10;33.20
23311;DHT22;11828;51.508;18.118;2022-07-10T02:45:13;33.10;33.00
23311;DHT22;11828;51.508;18.118;2022-07-10T02:47:39;33.10;33.10
23311;DHT22;11828;51.508;18.118;2022-07-10T02:50:05;33.10;33.30
23311;DHT22;11828;51.508;18.118;2022-07-10T02:52:32;33.10;33.40
23311;DHT22;11828;51.508;18.118;2022-07-10T02:54:58;33.10;33.20
23311;DHT22;11828;51.508;18.118;2022-07-10T02:57:24;33.10;33.80
23311;DHT22;11828;51.508;18.118;2022-07-10T02:59:51;33.10;33.00
23311;DHT22;11828;51.508;18.118;2022-07-10T03:02:17;33.00;33.20
23311;DHT22;11828;51.508;18.118;2022-07-10T03:04:43;33.00;33.30
23311;DHT22;11828;51.508;18.118;2022-07-10T03:07:09;33.00;33.20
23311;DHT22;11828;51.508;18.118;2022-07-10T03:09:35;33.00;33.30
23311;DHT22;11828;51.508;18.118;2022-07-10T03:12:01;33.10;33.40
23311;DHT22;11828;51.508;18.118;2022-07-10T03:14:27;33.00;33.10
23311;DHT22;11828;51.508;18.118;2022-07-10T03:16:53;33.00;33.20
23311;DHT22;11828;51.508;18.118;2022-07-10T03:19:19;33.00;33.70
23311;DHT22;11828;51.508;18.118;2022-07-10T03:21:45;33.00;33.00
23311;DHT22;11828;51.508;18.118;2022-07-10T03:24:12;32.90;32.80
23311;DHT22;11828;51.508;18.118;2022-07-10T03:26:38;32.90;32.60
23311;DHT22;11828;51.508;18.118;2022-07-10T03:29:04;32.80;32.80
23311;DHT22;11828;51.508;18.118;2022-07-10T03:31:30;32.80;32.90
23311;DHT22;11828;51.508;18.118;2022-07-10T03:33:56;32.70;33.00
23311;DHT22;11828;51.508;18.118;2022-07-10T03:36:22;32.70;33.10
23311;DHT22;11828;51.508;18.118;2022-07-10T03:38:48;32.70;33.00
23311;DHT22;11828;51.508;18.118;2022-07-10T03:41:14;32.70;32.90
23311;DHT22;11828;51.508;18.118;2022-07-10T03:43:41;32.70;32.70
23311;DHT22;11828;51.508;18.118;2022-07-10T03:46:07;32.70;32.60
23311;DHT22;11828;51.508;18.118;2022-07-10T03:48:33;32.70;32.60
23311;DHT22;11828;51.508;18.118;2022-07-10T03:51:00;32.70;32.40
23311;DHT22;11828;51.508;18.118;2022-07-10T03:53:27;32.60;32.40
23311;DHT22;11828;51.508;18.118;2022-07-10T03:55:53;32.70;32.20
23311;DHT22;11828;51.508;18.118;2022-07-10T03:58:20;32.60;32.10
23311;DHT22;11828;51.508;18.118;2022-07-10T04:00:47;32.60;32.00
23311;DHT22;11828;51.508;18.118;2022-07-10T04:03:13;32.60;31.70
23311;DHT22;11828;51.508;18.118;2022-07-10T04:05:39;32.70;31.80
23311;DHT22;11828;51.508;18.118;2022-07-10T04:08:05;32.80;31.70
23311;DHT22;11828;51.508;18.118;2022-07-10T04:10:32;32.90;32.20
23311;DHT22;11828;51.508;18.118;2022-07-10T04:12:58;32.90;31.20
23311;DHT22;11828;51.508;18.118;2022-07-10T04:15:24;32.90;30.90
23311;DHT22;11828;51.508;18.118;2022-07-10T04:17:50;32.90;30.80
23311;DHT22;11828;51.508;18.118;2022-07-10T04:20:18;32.90;30.70
23311;DHT22;11828;51.508;18.118;2022-07-10T04:22:44;33.00;30.40
23311;DHT22;11828;51.508;18.118;2022-07-10T04:25:11;33.00;30.90
23311;DHT22;11828;51.508;18.118;2022-07-10T04:27:38;33.00;30.10
23311;DHT22;11828;51.508;18.118;2022-07-10T04:30:05;33.00;30.00
23311;DHT22;11828;51.508;18.118;2022-07-10T04:32:32;33.00;30.00
23311;DHT22;11828;51.508;18.118;2022-07-10T04:34:58;33.00;29.90
23311;DHT22;11828;51.508;18.118;2022-07-10T04:37:26;33.00;29.90
23311;DHT22;11828;51.508;18.118;2022-07-10T04:39:53;33.10;30.00
23311;DHT22;11828;51.508;18.118;2022-07-10T04:42:20;33.10;29.90
23311;DHT22;11828;51.508;18.118;2022-07-10T04:44:46;33.20;29.70
23311;DHT22;11828;51.508;18.118;2022-07-10T04:47:12;33.20;29.40
23311;DHT22;11828;51.508;18.118;2022-07-10T04:49:38;33.20;29.50
23311;DHT22;11828;51.508;18.118;2022-07-10T04:52:05;33.20;29.50
23311;DHT22;11828;51.508;18.118;2022-07-10T04:54:31;33.10;29.20
23311;DHT22;11828;51.508;18.118;2022-07-10T04:56:58;33.20;29.20
23311;DHT22;11828;51.508;18.118;2022-07-10T04:59:24;33.10;29.20
23311;DHT22;11828;51.508;18.118;2022-07-10T05:01:50;33.10;29.20
23311;DHT22;11828;51.508;18.118;2022-07-10T05:04:16;33.10;29.10
23311;DHT22;11828;51.508;18.118;2022-07-10T05:06:42;33.10;29.40
23311;DHT22;11828;51.508;18.118;2022-07-10T05:09:08;33.20;29.30
23311;DHT22;11828;51.508;18.118;2022-07-10T05:11:34;33.30;29.20
23311;DHT22;11828;51.508;18.118;2022-07-10T05:14:00;33.40;29.10
23311;DHT22;11828;51.508;18.118;2022-07-10T05:16:26;33.50;29.20
23311;DHT22;11828;51.508;18.118;2022-07-10T05:18:52;33.60;28.80
23311;DHT22;11828;51.508;18.118;2022-07-10T05:21:18;33.70;28.80
23311;DHT22;11828;51.508;18.118;2022-07-10T05:23:44;33.70;28.70
23311;DHT22;11828;51.508;18.118;2022-07-10T05:26:10;33.60;28.50
23311;DHT22;11828;51.508;18.118;2022-07-10T05:28:36;33.60;28.60
23311;DHT22;11828;51.508;18.118;2022-07-10T05:31:03;33.60;28.60
23311;DHT22;11828;51.508;18.118;2022-07-10T05:33:29;33.50;28.70
23311;DHT22;11828;51.508;18.118;2022-07-10T05:35:55;33.40;28.50
23311;DHT22;11828;51.508;18.118;2022-07-10T05:38:21;33.40;28.70
23311;DHT22;11828;51.508;18.118;2022-07-10T05:40:47;33.50;28.80
23311;DHT22;11828;51.508;18.118;2022-07-10T05:43:14;33.60;28.70
23311;DHT22;11828;51.508;18.118;2022-07-10T05:45:40;33.80;28.60
23311;DHT22;11828;51.508;18.118;2022-07-10T05:48:06;33.90;28.60
23311;DHT22;11828;51.508;18.118;2022-07-10T05:50:32;34.00;28.50
23311;DHT22;11828;51.508;18.118;2022-07-10T05:52:58;34.10;28.40
23311;DHT22;11828;51.508;18.118;2022-07-10T05:55:24;34.10;28.30
23311;DHT22;11828;51.508;18.118;2022-07-10T05:57:50;34.20;28.20
23311;DHT22;11828;51.508;18.118;2022-07-10T06:00:16;34.30;27.90
23311;DHT22;11828;51.508;18.118;2022-07-10T06:02:43;34.30;27.90
23311;DHT22;11828;51.508;18.118;2022-07-10T06:05:09;34.30;28.00
23311;DHT22;11828;51.508;18.118;2022-07-10T06:07:35;34.40;27.90
23311;DHT22;11828;51.508;18.118;2022-07-10T06:10:03;34.40;27.60
23311;DHT22;11828;51.508;18.118;2022-07-10T06:12:29;34.40;27.30
23311;DHT22;11828;51.508;18.118;2022-07-10T06:14:56;34.40;27.30
23311;DHT22;11828;51.508;18.118;2022-07-10T06:17:22;34.30;27.50
23311;DHT22;11828;51.508;18.118;2022-07-10T06:19:48;34.30;27.50
23311;DHT22;11828;51.508;18.118;2022-07-10T06:22:14;34.30;27.40
23311;DHT22;11828;51.508;18.118;2022-07-10T06:24:59;34.20;27.40
23311;DHT22;11828;51.508;18.118;2022-07-10T06:27:34;34.10;27.70
23311;DHT22;11828;51.508;18.118;2022-07-10T06:30:01;34.10;27.80
23311;DHT22;11828;51.508;18.118;2022-07-10T06:32:27;34.20;27.70
23311;DHT22;11828;51.508;18.118;2022-07-10T06:34:53;34.20;27.60
23311;DHT22;11828;51.508;18.118;2022-07-10T06:37:20;34.10;27.40
23311;DHT22;11828;51.508;18.118;2022-07-10T06:39:47;34.00;27.40
23311;DHT22;11828;51.508;18.118;2022-07-10T06:42:14;34.00;27.50
23311;DHT22;11828;51.508;18.118;2022-07-10T06:44:44;34.00;27.60
23311;DHT22;11828;51.508;18.118;2022-07-10T06:47:12;34.10;27.60
23311;DHT22;11828;51.508;18.118;2022-07-10T06:49:59;34.20;27.60
23311;DHT22;11828;51.508;18.118;2022-07-10T06:52:25;34.10;27.30
23311;DHT22;11828;51.508;18.118;2022-07-10T06:54:52;34.10;27.30
23311;DHT22;11828;51.508;18.118;2022-07-10T06:57:19;34.10;27.30
23311;DHT22;11828;51.508;18.118;2022-07-10T06:59:46;34.10;27.20
23311;DHT22;11828;51.508;18.118;2022-07-10T07:02:12;34.20;27.50
23311;DHT22;11828;51.508;18.118;2022-07-10T07:04:38;34.10;27.40
23311;DHT22;11828;51.508;18.118;2022-07-10T07:07:04;34.10;27.40
23311;DHT22;11828;51.508;18.118;2022-07-10T07:09:30;34.20;27.30
23311;DHT22;11828;51.508;18.118;2022-07-10T07:11:56;34.30;27.40
23311;DHT22;11828;51.508;18.118;2022-07-10T07:14:22;34.20;27.40
23311;DHT22;11828;51.508;18.118;2022-07-10T07:16:48;34.40;27.30
23311;DHT22;11828;51.508;18.118;2022-07-10T07:19:24;34.70;27.20
23311;DHT22;11828;51.508;18.118;2022-07-10T07:21:58;35.10;27.20
23311;DHT22;11828;51.508;18.118;2022-07-10T07:24:43;35.50;27.20
23311;DHT22;11828;51.508;18.118;2022-07-10T07:27:10;36.00;26.60
23311;DHT22;11828;51.508;18.118;2022-07-10T07:29:36;36.30;26.10
23311;DHT22;11828;51.508;18.118;2022-07-10T07:32:03;36.40;25.90
23311;DHT22;11828;51.508;18.118;2022-07-10T07:34:29;36.30;25.60
23311;DHT22;11828;51.508;18.118;2022-07-10T07:36:57;36.30;25.40
23311;DHT22;11828;51.508;18.118;2022-07-10T07:39:23;36.20;25.50
23311;DHT22;11828;51.508;18.118;2022-07-10T07:41:49;36.20;25.70
23311;DHT22;11828;51.508;18.118;2022-07-10T07:44:15;36.30;25.90
23311;DHT22;11828;51.508;18.118;2022-07-10T07:46:44;36.30;25.60
23311;DHT22;11828;51.508;18.118;2022-07-10T07:49:10;36.50;25.30
23311;DHT22;11828;51.508;18.118;2022-07-10T07:51:36;36.40;25.00
23311;DHT22;11828;51.508;18.118;2022-07-10T07:54:02;36.30;24.90
23311;DHT22;11828;51.508;18.118;2022-07-10T07:56:28;36.20;25.00
23311;DHT22;11828;51.508;18.118;2022-07-10T07:58:54;36.20;25.10
23311;DHT22;11828;51.508;18.118;2022-07-10T08:01:20;36.10;25.10
23311;DHT22;11828;51.508;18.118;2022-07-10T08:03:46;36.00;24.90
23311;DHT22;11828;51.508;18.118;2022-07-10T08:06:11;36.00;25.10
23311;DHT22;11828;51.508;18.118;2022-07-10T08:08:38;36.00;24.90
23311;DHT22;11828;51.508;18.118;2022-07-10T08:11:04;36.00;24.70
23311;DHT22;11828;51.508;18.118;2022-07-10T08:13:30;36.10;24.70
23311;DHT22;11828;51.508;18.118;2022-07-10T08:15:58;36.00;24.90
23311;DHT22;11828;51.508;18.118;2022-07-10T08:18:24;35.90;24.60
23311;DHT22;11828;51.508;18.118;2022-07-10T08:20:50;35.80;24.50
23311;DHT22;11828;51.508;18.118;2022-07-10T08:23:16;35.60;24.50
23311;DHT22;11828;51.508;18.118;2022-07-10T08:25:42;35.40;24.80
23311;DHT22;11828;51.508;18.118;2022-07-10T08:28:08;35.30;25.10
23311;DHT22;11828;51.508;18.118;2022-07-10T08:30:37;35.10;25.10
23311;DHT22;11828;51.508;18.118;2022-07-10T08:33:04;35.00;25.30
23311;DHT22;11828;51.508;18.118;2022-07-10T08:35:30;34.80;25.40
23311;DHT22;11828;51.508;18.118;2022-07-10T08:37:56;34.60;25.10
23311;DHT22;11828;51.508;18.118;2022-07-10T08:40:22;34.60;25.10
23311;DHT22;11828;51.508;18.118;2022-07-10T08:42:48;34.50;24.90
23311;DHT22;11828;51.508;18.118;2022-07-10T08:45:15;34.50;25.00
23311;DHT22;11828;51.508;18.118;2022-07-10T08:47:41;34.60;24.90
23311;DHT22;11828;51.508;18.118;2022-07-10T08:50:17;35.00;24.90
23311;DHT22;11828;51.508;18.118;2022-07-10T08:52:59;35.20;24.50
23311;DHT22;11828;51.508;18.118;2022-07-10T08:55:27;35.30;24.70
23311;DHT22;11828;51.508;18.118;2022-07-10T08:57:54;35.30;24.60
23311;DHT22;11828;51.508;18.118;2022-07-10T09:00:22;35.30;24.40
23311;DHT22;11828;51.508;18.118;2022-07-10T09:02:48;35.30;24.70
23311;DHT22;11828;51.508;18.118;2022-07-10T09:05:14;35.30;24.90
23311;DHT22;11828;51.508;18.118;2022-07-10T09:07:40;35.20;24.80
23311;DHT22;11828;51.508;18.118;2022-07-10T09:10:10;35.20;25.10
23311;DHT22;11828;51.508;18.118;2022-07-10T09:13:00;35.20;24.60
23311;DHT22;11828;51.508;18.118;2022-07-10T09:15:29;35.20;24.60
23311;DHT22;11828;51.508;18.118;2022-07-10T09:18:03;35.20;24.80
23311;DHT22;11828;51.508;18.118;2022-07-10T09:20:36;35.30;24.60
23311;DHT22;11828;51.508;18.118;2022-07-10T09:23:21;35.50;24.80
23311;DHT22;11828;51.508;18.118;2022-07-10T09:25:50;35.60;24.60
23311;DHT22;11828;51.508;18.118;2022-07-10T09:28:19;36.00;24.80
23311;DHT22;11828;51.508;18.118;2022-07-10T09:30:47;36.50;24.80
23311;DHT22;11828;51.508;18.118;2022-07-10T09:33:26;36.60;24.10
23311;DHT22;11828;51.508;18.118;2022-07-10T09:41:29;37.00;23.60
23311;DHT22;11828;51.508;18.118;2022-07-10T09:46:36;37.20;23.60
23311;DHT22;11828;51.508;18.118;2022-07-10T09:49:09;37.40;23.10
23311;DHT22;11828;51.508;18.118;2022-07-10T09:51:43;37.60;23.10
23311;DHT22;11828;51.508;18.118;2022-07-10T09:54:12;38.00;23.10
23311;DHT22;11828;51.508;18.118;2022-07-10T09:56:49;38.00;22.80
23311;DHT22;11828;51.508;18.118;2022-07-10T09:59:20;37.90;23.00
23311;DHT22;11828;51.508;18.118;2022-07-10T10:01:47;37.70;22.30
23311;DHT22;11828;51.508;18.118;2022-07-10T10:04:19;37.50;22.10
23311;DHT22;11828;51.508;18.118;2022-07-10T10:06:55;37.30;22.10
23311;DHT22;11828;51.508;18.118;2022-07-10T10:11:57;37.00;22.80
23311;DHT22;11828;51.508;18.118;2022-07-10T10:14:27;37.50;26.50
23311;DHT22;11828;51.508;18.118;2022-07-10T10:16:55;37.80;22.30
23311;DHT22;11828;51.508;18.118;2022-07-10T10:19:23;38.10;21.90
23311;DHT22;11828;51.508;18.118;2022-07-10T10:22:09;38.10;21.40
23311;DHT22;11828;51.508;18.118;2022-07-10T10:24:38;38.10;21.50
23311;DHT22;11828;51.508;18.118;2022-07-10T10:27:06;38.00;21.80
23311;DHT22;11828;51.508;18.118;2022-07-10T10:29:35;38.00;21.90
23311;DHT22;11828;51.508;18.118;2022-07-10T10:32:01;37.80;21.80
23311;DHT22;11828;51.508;18.118;2022-07-10T10:34:41;37.50;21.70
23311;DHT22;11828;51.508;18.118;2022-07-10T10:39:54;36.90;21.90
23311;DHT22;11828;51.508;18.118;2022-07-10T10:42:37;36.80;22.10
23311;DHT22;11828;51.508;18.118;2022-07-10T10:48:09;36.80;22.60
23311;DHT22;11828;51.508;18.118;2022-07-10T10:50:50;36.70;22.00
23311;DHT22;11828;51.508;18.118;2022-07-10T10:53:19;36.70;21.60
23311;DHT22;11828;51.508;18.118;2022-07-10T11:09:35;35.90;23.50
23311;DHT22;11828;51.508;18.118;2022-07-10T11:12:05;35.70;24.10
23311;DHT22;11828;51.508;18.118;2022-07-10T11:14:45;35.60;24.00
23311;DHT22;11828;51.508;18.118;2022-07-10T11:17:13;35.40;24.50
23311;DHT22;11828;51.508;18.118;2022-07-10T11:19:39;35.30;24.30
23311;DHT22;11828;51.508;18.118;2022-07-10T11:22:35;35.20;24.40
23311;DHT22;11828;51.508;18.118;2022-07-10T11:26:03;35.10;24.60
23311;DHT22;11828;51.508;18.118;2022-07-10T11:31:09;34.80;24.50
23311;DHT22;11828;51.508;18.118;2022-07-10T11:33:43;34.70;24.50
23311;DHT22;11828;51.508;18.118;2022-07-10T11:36:17;34.70;24.60
23311;DHT22;11828;51.508;18.118;2022-07-10T11:38:45;34.70;24.70
23311;DHT22;11828;51.508;18.118;2022-07-10T11:41:19;34.90;24.40
23311;DHT22;11828;51.508;18.118;2022-07-10T11:46:17;35.10;24.40
23311;DHT22;11828;51.508;18.118;2022-07-10T11:48:44;35.30;24.20
23311;DHT22;11828;51.508;18.118;2022-07-10T11:54:06;35.60;24.20
23311;DHT22;11828;51.508;18.118;2022-07-10T11:56:39;36.00;23.70
23311;DHT22;11828;51.508;18.118;2022-07-10T11:59:11;36.60;23.40
23311;DHT22;11828;51.508;18.118;2022-07-10T12:01:43;37.20;23.30
23311;DHT22;11828;51.508;18.118;2022-07-10T12:04:14;37.60;22.60
23311;DHT22;11828;51.508;18.118;2022-07-10T12:06:43;37.80;22.20
23311;DHT22;11828;51.508;18.118;2022-07-10T12:09:13;37.90;22.20
23311;DHT22;11828;51.508;18.118;2022-07-10T12:11:44;37.70;21.80
23311;DHT22;11828;51.508;18.118;2022-07-10T12:14:22;37.60;21.90
23311;DHT22;11828;51.508;18.118;2022-07-10T12:16:52;37.60;21.90
23311;DHT22;11828;51.508;18.118;2022-07-10T12:19:28;37.50;21.50
23311;DHT22;11828;51.508;18.118;2022-07-10T12:21:57;37.50;21.30
23311;DHT22;11828;51.508;18.118;2022-07-10T12:24:24;37.70;21.50
23311;DHT22;11828;51.508;18.118;2022-07-10T12:26:52;37.90;21.30
23311;DHT22;11828;51.508;18.118;2022-07-10T12:29:30;38.20;21.30
23311;DHT22;11828;51.508;18.118;2022-07-10T12:32:01;38.30;20.60
23311;DHT22;11828;51.508;18.118;2022-07-10T12:34:35;38.50;20.90
23311;DHT22;11828;51.508;18.118;2022-07-10T12:37:12;38.60;20.90
23311;DHT22;11828;51.508;18.118;2022-07-10T12:39:50;38.70;21.10
23311;DHT22;11828;51.508;18.118;2022-07-10T12:42:29;38.80;20.80
23311;DHT22;11828;51.508;18.118;2022-07-10T12:45:14;38.90;20.70
23311;DHT22;11828;51.508;18.118;2022-07-10T12:47:48;39.00;20.80
23311;DHT22;11828;51.508;18.118;2022-07-10T12:50:16;39.20;20.50
23311;DHT22;11828;51.508;18.118;2022-07-10T12:52:46;39.40;20.40
23311;DHT22;11828;51.508;18.118;2022-07-10T12:55:20;39.40;20.30
23311;DHT22;11828;51.508;18.118;2022-07-10T12:57:56;39.30;20.40
23311;DHT22;11828;51.508;18.118;2022-07-10T13:00:24;39.20;20.60
23311;DHT22;11828;51.508;18.118;2022-07-10T13:05:39;39.00;20.80
23311;DHT22;11828;51.508;18.118;2022-07-10T13:08:12;38.70;20.70
23311;DHT22;11828;51.508;18.118;2022-07-10T13:10:41;38.80;20.90
23311;DHT22;11828;51.508;18.118;2022-07-10T13:13:08;39.00;20.50
23311;DHT22;11828;51.508;18.118;2022-07-10T13:15:35;39.10;20.40
23311;DHT22;11828;51.508;18.118;2022-07-10T13:18:19;39.30;20.10
23311;DHT22;11828;51.508;18.118;2022-07-10T13:20:48;39.50;20.20
23311;DHT22;11828;51.508;18.118;2022-07-10T13:23:16;39.70;19.60
23311;DHT22;11828;51.508;18.118;2022-07-10T13:25:44;39.80;19.40
23311;DHT22;11828;51.508;18.118;2022-07-10T13:28:10;39.80;19.30
23311;DHT22;11828;51.508;18.118;2022-07-10T13:30:39;40.00;19.40
23311;DHT22;11828;51.508;18.118;2022-07-10T13:33:05;40.50;19.20
23311;DHT22;11828;51.508;18.118;2022-07-10T13:35:33;40.70;18.60
23311;DHT22;11828;51.508;18.118;2022-07-10T13:38:00;40.80;18.20
23311;DHT22;11828;51.508;18.118;2022-07-10T13:40:29;40.60;18.10
23311;DHT22;11828;51.508;18.118;2022-07-10T13:42:56;40.60;18.20
23311;DHT22;11828;51.508;18.118;2022-07-10T13:45:24;40.40;18.20
23311;DHT22;11828;51.508;18.118;2022-07-10T13:47:58;40.20;18.60
23311;DHT22;11828;51.508;18.118;2022-07-10T13:50:24;40.10;18.80
23311;DHT22;11828;51.508;18.118;2022-07-10T13:52:51;40.10;18.70
23311;DHT22;11828;51.508;18.118;2022-07-10T13:55:17;40.10;18.60
23311;DHT22;11828;51.508;18.118;2022-07-10T13:57:43;39.90;18.90
23311;DHT22;11828;51.508;18.118;2022-07-10T14:00:10;39.80;19.20
23311;DHT22;11828;51.508;18.118;2022-07-10T14:02:37;39.60;19.20
23311;DHT22;11828;51.508;18.118;2022-07-10T14:05:03;39.40;19.20
23311;DHT22;11828;51.508;18.118;2022-07-10T14:07:30;39.20;19.50
23311;DHT22;11828;51.508;18.118;2022-07-10T14:09:56;39.20;19.70
23311;DHT22;11828;51.508;18.118;2022-07-10T14:12:23;39.40;19.80
23311;DHT22;11828;51.508;18.118;2022-07-10T14:14:49;39.30;20.00
23311;DHT22;11828;51.508;18.118;2022-07-10T14:17:16;39.10;20.30
23311;DHT22;11828;51.508;18.118;2022-07-10T14:19:42;39.00;20.60
23311;DHT22;11828;51.508;18.118;2022-07-10T14:22:08;39.40;20.70
23311;DHT22;11828;51.508;18.118;2022-07-10T14:24:35;40.00;20.20
23311;DHT22;11828;51.508;18.118;2022-07-10T14:27:01;40.30;19.30
23311;DHT22;11828;51.508;18.118;2022-07-10T14:29:26;40.30;19.20
23311;DHT22;11828;51.508;18.118;2022-07-10T14:31:53;40.10;19.40
23311;DHT22;11828;51.508;18.118;2022-07-10T14:34:19;39.90;19.60
23311;DHT22;11828;51.508;18.118;2022-07-10T14:36:45;39.60;19.70
23311;DHT22;11828;51.508;18.118;2022-07-10T14:39:11;39.40;19.80
23311;DHT22;11828;51.508;18.118;2022-07-10T14:41:38;39.00;19.80
23311;DHT22;11828;51.508;18.118;2022-07-10T14:44:05;38.60;20.00
23311;DHT22;11828;51.508;18.118;2022-07-10T14:46:34;38.10;20.50
23311;DHT22;11828;51.508;18.118;2022-07-10T14:49:00;37.80;20.90
23311;DHT22;11828;51.508;18.118;2022-07-10T14:51:27;37.60;21.10
23311;DHT22;11828;51.508;18.118;2022-07-10T14:53:53;37.50;21.20
23311;DHT22;11828;51.508;18.118;2022-07-10T14:56:20;37.50;21.20
23311;DHT22;11828;51.508;18.118;2022-07-10T14:58:46;37.50;20.70
23311;DHT22;11828;51.508;18.118;2022-07-10T15:01:13;37.40;20.50
23311;DHT22;11828;51.508;18.118;2022-07-10T15:03:40;37.30;20.30
23311;DHT22;11828;51.508;18.118;2022-07-10T15:06:06;37.30;20.30
23311;DHT22;11828;51.508;18.118;2022-07-10T15:08:32;37.20;20.50
23311;DHT22;11828;51.508;18.118;2022-07-10T15:10:59;37.10;20.50
23311;DHT22;11828;51.508;18.118;2022-07-10T15:13:26;37.00;20.40
23311;DHT22;11828;51.508;18.118;2022-07-10T15:15:53;37.00;20.60
23311;DHT22;11828;51.508;18.118;2022-07-10T15:18:19;36.90;20.60
23311;DHT22;11828;51.508;18.118;2022-07-10T15:20:47;36.90;20.80
23311;DHT22;11828;51.508;18.118;2022-07-10T15:23:14;36.80;20.90
23311;DHT22;11828;51.508;18.118;2022-07-10T15:25:41;36.70;21.00
23311;DHT22;11828;51.508;18.118;2022-07-10T15:28:07;36.70;21.30
23311;DHT22;11828;51.508;18.118;2022-07-10T15:30:38;36.60;21.30
23311;DHT22;11828;51.508;18.118;2022-07-10T15:33:05;36.60;21.40
23311;DHT22;11828;51.508;18.118;2022-07-10T15:35:31;36.60;21.60
23311;DHT22;11828;51.508;18.118;2022-07-10T15:37:58;36.60;21.80
23311;DHT22;11828;51.508;18.118;2022-07-10T15:40:28;36.60;22.30
23311;DHT22;11828;51.508;18.118;2022-07-10T15:42:55;36.50;22.90
23311;DHT22;11828;51.508;18.118;2022-07-10T15:45:23;36.40;23.10
23311;DHT22;11828;51.508;18.118;2022-07-10T15:47:49;36.40;23.40
23311;DHT22;11828;51.508;18.118;2022-07-10T15:50:15;36.50;23.70
23311;DHT22;11828;51.508;18.118;2022-07-10T15:52:41;36.50;23.60
23311;DHT22;11828;51.508;18.118;2022-07-10T15:55:08;36.60;23.60
23311;DHT22;11828;51.508;18.118;2022-07-10T15:57:34;36.60;23.60
23311;DHT22;11828;51.508;18.118;2022-07-10T16:00:00;36.60;23.40
23311;DHT22;11828;51.508;18.118;2022-07-10T16:02:26;36.60;23.50